ΕΜΥ, Εθνική Μετεωρολογική Υπηρεσία - Δελτία Καιρού, Προγνώσεις

ΑΕΡΟΝΑΥΤΙΛΙΑ

GREEK AIRPORTS CODES

LGST 132300Z AUTO 18004KT 130V200 //// -RA ////// 15/14 Q1012 RE// RMK 0.2MM=

EUROPEAN AIRPORTS CODES

LFPO 132300Z 17012KT 140V200 9999 BKN043 SCT086 BKN130 06/03Q0996 NOSIG=